sensor_id;sensor_type;location;lat;lon;timestamp;pressure;altitude;pressure_sealevel;temperature;humidity
72409;BME280;60402;48.082;11.628;2023-04-01T00:02:16;94154.72;;;7.21;97.70
72409;BME280;60402;48.082;11.628;2023-04-01T00:05:01;94131.56;;;7.16;97.42
72409;BME280;60402;48.082;11.628;2023-04-01T00:07:47;94128.81;;;7.04;97.88
72409;BME280;60402;48.082;11.628;2023-04-01T00:10:32;94148.09;;;7.14;98.08
72409;BME280;60402;48.082;11.628;2023-04-01T00:13:18;94160.41;;;7.30;97.50
72409;BME280;60402;48.082;11.628;2023-04-01T00:16:04;94157.63;;;7.17;98.79
72409;BME280;60402;48.082;11.628;2023-04-01T00:18:51;94147.31;;;7.14;97.63
72409;BME280;60402;48.082;11.628;2023-04-01T00:21:36;94132.59;;;7.10;97.92
72409;BME280;60402;48.082;11.628;2023-04-01T00:24:22;94125.09;;;7.07;97.29
72409;BME280;60402;48.082;11.628;2023-04-01T00:27:08;94128.75;;;7.16;97.13
72409;BME280;60402;48.082;11.628;2023-04-01T00:29:54;94122.94;;;7.11;97.02
72409;BME280;60402;48.082;11.628;2023-04-01T00:32:39;94142.47;;;7.14;98.16
72409;BME280;60402;48.082;11.628;2023-04-01T00:35:25;94120.19;;;6.98;98.25
72409;BME280;60402;48.082;11.628;2023-04-01T00:38:11;94103.13;;;6.93;97.99
72409;BME280;60402;48.082;11.628;2023-04-01T00:40:57;94113.31;;;6.99;98.40
72409;BME280;60402;48.082;11.628;2023-04-01T00:43:46;94130.72;;;7.07;98.26
72409;BME280;60402;48.082;11.628;2023-04-01T00:46:32;94108.59;;;6.96;97.74
72409;BME280;60402;48.082;11.628;2023-04-01T00:49:21;94118.63;;;6.97;98.30
72409;BME280;60402;48.082;11.628;2023-04-01T00:52:11;94108.94;;;6.98;97.11
72409;BME280;60402;48.082;11.628;2023-04-01T00:54:58;94124.94;;;7.10;97.47
72409;BME280;60402;48.082;11.628;2023-04-01T00:57:47;94105.16;;;6.92;97.68
72409;BME280;60402;48.082;11.628;2023-04-01T01:00:34;94115.91;;;6.94;97.80
72409;BME280;60402;48.082;11.628;2023-04-01T01:03:21;94130.56;;;7.10;97.59
72409;BME280;60402;48.082;11.628;2023-04-01T01:06:26;94115.53;;;7.04;97.58
72409;BME280;60402;48.082;11.628;2023-04-01T01:09:45;94088.66;;;6.81;98.22
72409;BME280;60402;48.082;11.628;2023-04-01T01:15:28;94121.03;;;7.08;97.72
72409;BME280;60402;48.082;11.628;2023-04-01T01:27:58;94105.75;;;7.09;96.63
72409;BME280;60402;48.082;11.628;2023-04-01T01:30:57;94132.09;;;7.24;96.74
72409;BME280;60402;48.082;11.628;2023-04-01T01:33:49;94127.91;;;7.29;96.12
72409;BME280;60402;48.082;11.628;2023-04-01T01:36:42;94127.53;;;7.17;97.04
72409;BME280;60402;48.082;11.628;2023-04-01T01:39:31;94133.69;;;7.25;96.88
72409;BME280;60402;48.082;11.628;2023-04-01T01:42:20;94102.28;;;7.05;96.32
72409;BME280;60402;48.082;11.628;2023-04-01T01:45:09;94106.22;;;7.07;96.52
72409;BME280;60402;48.082;11.628;2023-04-01T01:47:56;94110.00;;;7.13;96.94
72409;BME280;60402;48.082;11.628;2023-04-01T01:50:44;94096.94;;;6.98;96.91
72409;BME280;60402;48.082;11.628;2023-04-01T01:53:30;94091.19;;;7.01;97.04
72409;BME280;60402;48.082;11.628;2023-04-01T01:56:18;94086.59;;;6.95;97.47
72409;BME280;60402;48.082;11.628;2023-04-01T01:59:05;94115.09;;;7.06;98.64
72409;BME280;60402;48.082;11.628;2023-04-01T02:01:55;94110.78;;;7.14;98.30
72409;BME280;60402;48.082;11.628;2023-04-01T02:04:43;94100.84;;;7.00;98.03
72409;BME280;60402;48.082;11.628;2023-04-01T02:07:33;94096.25;;;6.94;97.98
72409;BME280;60402;48.082;11.628;2023-04-01T02:10:21;94117.25;;;7.02;97.64
72409;BME280;60402;48.082;11.628;2023-04-01T02:13:19;94119.34;;;7.10;98.13
72409;BME280;60402;48.082;11.628;2023-04-01T02:16:21;94128.56;;;7.11;97.67
72409;BME280;60402;48.082;11.628;2023-04-01T02:19:10;94139.66;;;7.14;97.65
72409;BME280;60402;48.082;11.628;2023-04-01T02:22:00;94156.31;;;7.09;96.68
72409;BME280;60402;48.082;11.628;2023-04-01T02:24:47;94139.66;;;7.14;96.46
72409;BME280;60402;48.082;11.628;2023-04-01T02:27:34;94146.88;;;7.15;96.22
72409;BME280;60402;48.082;11.628;2023-04-01T02:30:21;94116.00;;;7.03;95.41
72409;BME280;60402;48.082;11.628;2023-04-01T02:33:07;94116.97;;;7.09;94.98
72409;BME280;60402;48.082;11.628;2023-04-01T02:35:53;94102.53;;;6.98;95.19
72409;BME280;60402;48.082;11.628;2023-04-01T02:38:39;94132.34;;;7.17;94.84
72409;BME280;60402;48.082;11.628;2023-04-01T02:41:25;94111.44;;;7.18;95.18
72409;BME280;60402;48.082;11.628;2023-04-01T02:44:12;94134.38;;;7.16;94.42
72409;BME280;60402;48.082;11.628;2023-04-01T02:46:58;94120.84;;;7.02;95.07
72409;BME280;60402;48.082;11.628;2023-04-01T02:49:43;94137.72;;;7.24;94.89
72409;BME280;60402;48.082;11.628;2023-04-01T02:52:30;94128.75;;;7.16;94.53
72409;BME280;60402;48.082;11.628;2023-04-01T02:55:15;94135.47;;;7.19;93.44
72409;BME280;60402;48.082;11.628;2023-04-01T02:58:04;94146.94;;;7.25;94.46
72409;BME280;60402;48.082;11.628;2023-04-01T03:00:50;94136.19;;;7.10;94.30
72409;BME280;60402;48.082;11.628;2023-04-01T03:03:36;94118.81;;;7.03;94.03
72409;BME280;60402;48.082;11.628;2023-04-01T03:06:21;94131.72;;;7.00;94.21
72409;BME280;60402;48.082;11.628;2023-04-01T03:09:07;94148.53;;;7.13;94.40
72409;BME280;60402;48.082;11.628;2023-04-01T03:11:53;94145.28;;;7.14;94.04
72409;BME280;60402;48.082;11.628;2023-04-01T03:14:38;94140.38;;;7.06;94.49
72409;BME280;60402;48.082;11.628;2023-04-01T03:17:24;94139.81;;;7.11;94.23
72409;BME280;60402;48.082;11.628;2023-04-01T03:20:10;94147.13;;;6.96;94.62
72409;BME280;60402;48.082;11.628;2023-04-01T03:22:56;94140.03;;;7.04;94.77
72409;BME280;60402;48.082;11.628;2023-04-01T03:25:42;94118.06;;;6.89;94.27
72409;BME280;60402;48.082;11.628;2023-04-01T03:28:28;94139.06;;;6.98;94.14
72409;BME280;60402;48.082;11.628;2023-04-01T03:31:14;94145.38;;;6.89;94.66
72409;BME280;60402;48.082;11.628;2023-04-01T03:34:01;94136.97;;;6.76;94.42
72409;BME280;60402;48.082;11.628;2023-04-01T03:36:46;94144.03;;;6.81;94.97
72409;BME280;60402;48.082;11.628;2023-04-01T03:39:32;94147.38;;;6.88;93.91
72409;BME280;60402;48.082;11.628;2023-04-01T03:42:18;94156.03;;;6.81;94.55
72409;BME280;60402;48.082;11.628;2023-04-01T03:45:04;94149.34;;;6.66;95.17
72409;BME280;60402;48.082;11.628;2023-04-01T03:47:50;94143.84;;;6.62;95.24
72409;BME280;60402;48.082;11.628;2023-04-01T03:50:36;94157.19;;;6.71;94.17
72409;BME280;60402;48.082;11.628;2023-04-01T03:53:22;94166.38;;;6.72;95.58
72409;BME280;60402;48.082;11.628;2023-04-01T03:56:08;94152.41;;;6.59;95.53
72409;BME280;60402;48.082;11.628;2023-04-01T03:58:54;94172.44;;;6.83;94.89
72409;BME280;60402;48.082;11.628;2023-04-01T04:01:39;94149.34;;;6.66;95.96
72409;BME280;60402;48.082;11.628;2023-04-01T04:04:26;94164.16;;;6.66;96.00
72409;BME280;60402;48.082;11.628;2023-04-01T04:07:12;94151.38;;;6.53;95.92
72409;BME280;60402;48.082;11.628;2023-04-01T04:09:58;94162.91;;;6.68;96.81
72409;BME280;60402;48.082;11.628;2023-04-01T04:12:43;94168.66;;;6.64;96.50
72409;BME280;60402;48.082;11.628;2023-04-01T04:15:29;94151.03;;;6.63;96.15
72409;BME280;60402;48.082;11.628;2023-04-01T04:18:15;94165.81;;;6.77;96.27
72409;BME280;60402;48.082;11.628;2023-04-01T04:21:01;94154.38;;;6.58;96.57
72409;BME280;60402;48.082;11.628;2023-04-01T04:23:47;94167.53;;;6.61;96.76
72409;BME280;60402;48.082;11.628;2023-04-01T04:26:32;94166.97;;;6.54;97.12
72409;BME280;60402;48.082;11.628;2023-04-01T04:29:18;94169.34;;;6.68;97.18
72409;BME280;60402;48.082;11.628;2023-04-01T04:32:04;94180.88;;;6.70;97.22
72409;BME280;60402;48.082;11.628;2023-04-01T04:34:49;94151.38;;;6.53;97.51
72409;BME280;60402;48.082;11.628;2023-04-01T04:37:35;94166.06;;;6.70;97.12
72409;BME280;60402;48.082;11.628;2023-04-01T04:40:21;94182.25;;;6.65;97.70
72409;BME280;60402;48.082;11.628;2023-04-01T04:43:07;94174.38;;;6.60;97.51
72409;BME280;60402;48.082;11.628;2023-04-01T04:45:54;94190.09;;;6.71;97.71
72409;BME280;60402;48.082;11.628;2023-04-01T04:48:40;94172.03;;;6.59;97.40
72409;BME280;60402;48.082;11.628;2023-04-01T04:51:26;94176.94;;;6.68;96.72
72409;BME280;60402;48.082;11.628;2023-04-01T04:54:12;94185.81;;;6.66;98.03
72409;BME280;60402;48.082;11.628;2023-04-01T04:56:58;94186.19;;;6.68;97.37
72409;BME280;60402;48.082;11.628;2023-04-01T04:59:44;94176.16;;;6.67;96.71
72409;BME280;60402;48.082;11.628;2023-04-01T05:02:29;94206.81;;;6.87;97.88
72409;BME280;60402;48.082;11.628;2023-04-01T05:05:15;94164.63;;;6.65;96.88
72409;BME280;60402;48.082;11.628;2023-04-01T05:08:01;94161.13;;;6.61;96.54
72409;BME280;60402;48.082;11.628;2023-04-01T05:10:47;94181.22;;;6.72;96.71
72409;BME280;60402;48.082;11.628;2023-04-01T05:13:32;94207.44;;;7.04;96.33
72409;BME280;60402;48.082;11.628;2023-04-01T05:16:19;94199.28;;;6.97;96.00
72409;BME280;60402;48.082;11.628;2023-04-01T05:19:05;94196.31;;;7.00;95.36
72409;BME280;60402;48.082;11.628;2023-04-01T05:21:51;94165.22;;;6.95;95.09
72409;BME280;60402;48.082;11.628;2023-04-01T05:24:38;94193.50;;;7.00;94.62
72409;BME280;60402;48.082;11.628;2023-04-01T05:27:23;94167.72;;;6.93;93.60
72409;BME280;60402;48.082;11.628;2023-04-01T05:30:10;94199.53;;;7.24;93.20
72409;BME280;60402;48.082;11.628;2023-04-01T05:32:55;94185.16;;;7.22;92.88
72409;BME280;60402;48.082;11.628;2023-04-01T05:35:41;94190.19;;;7.27;92.60
72409;BME280;60402;48.082;11.628;2023-04-01T05:38:27;94181.47;;;7.12;92.18
72409;BME280;60402;48.082;11.628;2023-04-01T05:41:13;94190.28;;;7.36;91.31
72409;BME280;60402;48.082;11.628;2023-04-01T05:43:59;94187.97;;;7.22;91.55
72409;BME280;60402;48.082;11.628;2023-04-01T05:46:45;94205.47;;;7.39;90.49
72409;BME280;60402;48.082;11.628;2023-04-01T05:49:31;94203.59;;;7.58;90.35
72409;BME280;60402;48.082;11.628;2023-04-01T05:52:18;94179.00;;;7.49;89.51
72409;BME280;60402;48.082;11.628;2023-04-01T05:55:04;94184.41;;;7.65;89.34
72409;BME280;60402;48.082;11.628;2023-04-01T05:57:50;94167.66;;;7.62;89.70
72409;BME280;60402;48.082;11.628;2023-04-01T06:00:36;94199.94;;;7.92;88.92
72409;BME280;60402;48.082;11.628;2023-04-01T06:03:21;94178.00;;;7.87;88.31
72409;BME280;60402;48.082;11.628;2023-04-01T06:06:27;94194.22;;;8.05;87.76
72409;BME280;60402;48.082;11.628;2023-04-01T06:09:24;94185.69;;;8.17;87.35
72409;BME280;60402;48.082;11.628;2023-04-01T06:13:01;94185.75;;;8.27;86.34
72409;BME280;60402;48.082;11.628;2023-04-01T06:19:24;94201.31;;;8.40;85.01
72409;BME280;60402;48.082;11.628;2023-04-01T06:26:07;94199.16;;;8.44;83.94
72409;BME280;60402;48.082;11.628;2023-04-01T06:40:57;94197.59;;;9.70;79.66
72409;BME280;60402;48.082;11.628;2023-04-01T06:43:58;94195.84;;;9.45;80.08
72409;BME280;60402;48.082;11.628;2023-04-01T06:46:59;94162.94;;;9.24;79.43
72409;BME280;60402;48.082;11.628;2023-04-01T06:52:57;94205.94;;;9.06;80.51
72409;BME280;60402;48.082;11.628;2023-04-01T06:58:59;94201.28;;;9.21;81.37
72409;BME280;60402;48.082;11.628;2023-04-01T07:01:54;94201.00;;;9.37;81.61
72409;BME280;60402;48.082;11.628;2023-04-01T07:04:44;94203.06;;;9.83;79.97
72409;BME280;60402;48.082;11.628;2023-04-01T07:07:43;94203.16;;;10.34;78.34
72409;BME280;60402;48.082;11.628;2023-04-01T07:10:44;94198.31;;;10.35;77.22
72409;BME280;60402;48.082;11.628;2023-04-01T07:13:57;94218.72;;;10.30;76.06
72409;BME280;60402;48.082;11.628;2023-04-01T07:16:46;94213.09;;;10.02;76.94
72409;BME280;60402;48.082;11.628;2023-04-01T07:22:49;94199.44;;;9.82;77.55
72409;BME280;60402;48.082;11.628;2023-04-01T07:25:39;94212.13;;;10.05;76.51
72409;BME280;60402;48.082;11.628;2023-04-01T07:28:30;94215.69;;;10.52;75.05
72409;BME280;60402;48.082;11.628;2023-04-01T07:37:27;94206.69;;;13.54;57.58
72409;BME280;60402;48.082;11.628;2023-04-01T07:46:45;94207.56;;;14.47;52.66
72409;BME280;60402;48.082;11.628;2023-04-01T07:52:47;94217.16;;;16.25;49.33
72409;BME280;60402;48.082;11.628;2023-04-01T07:55:46;94212.63;;;17.73;45.27
72409;BME280;60402;48.082;11.628;2023-04-01T08:07:47;94213.75;;;13.99;53.26
72409;BME280;60402;48.082;11.628;2023-04-01T08:17:39;94184.75;;;11.47;60.38
72409;BME280;60402;48.082;11.628;2023-04-01T08:20:32;94205.47;;;11.54;61.42
72409;BME280;60402;48.082;11.628;2023-04-01T08:23:27;94226.47;;;12.10;60.11
72409;BME280;60402;48.082;11.628;2023-04-01T08:29:26;94218.13;;;13.60;55.70
72409;BME280;60402;48.082;11.628;2023-04-01T08:32:22;94195.56;;;15.58;50.39
72409;BME280;60402;48.082;11.628;2023-04-01T08:38:13;94197.00;;;15.05;50.24
72409;BME280;60402;48.082;11.628;2023-04-01T08:41:21;94196.00;;;15.08;50.98
72409;BME280;60402;48.082;11.628;2023-04-01T08:59:55;94198.78;;;14.71;51.53
72409;BME280;60402;48.082;11.628;2023-04-01T09:09:35;94218.78;;;16.43;46.29
72409;BME280;60402;48.082;11.628;2023-04-01T09:24:41;94179.81;;;15.63;47.58
72409;BME280;60402;48.082;11.628;2023-04-01T09:27:56;94190.06;;;15.92;47.87
72409;BME280;60402;48.082;11.628;2023-04-01T09:37:34;94155.53;;;13.28;52.11
72409;BME280;60402;48.082;11.628;2023-04-01T09:40:58;94171.16;;;13.59;52.62
72409;BME280;60402;48.082;11.628;2023-04-01T09:44:00;94153.75;;;13.30;52.79
72409;BME280;60402;48.082;11.628;2023-04-01T09:47:10;94172.16;;;13.20;53.51
72409;BME280;60402;48.082;11.628;2023-04-01T10:08:29;94126.09;;;14.39;52.00
72409;BME280;60402;48.082;11.628;2023-04-01T10:18:42;94154.75;;;13.68;53.84
72409;BME280;60402;48.082;11.628;2023-04-01T10:22:50;94131.28;;;13.12;54.18
72409;BME280;60402;48.082;11.628;2023-04-01T10:37:57;94135.88;;;12.89;55.54
72409;BME280;60402;48.082;11.628;2023-04-01T10:44:20;94150.16;;;13.30;55.78
72409;BME280;60402;48.082;11.628;2023-04-01T11:06:11;94166.59;;;12.32;61.30
72409;BME280;60402;48.082;11.628;2023-04-01T11:22:49;94184.94;;;11.92;64.84
72409;BME280;60402;48.082;11.628;2023-04-01T11:26:07;94177.09;;;11.87;65.46
72409;BME280;60402;48.082;11.628;2023-04-01T11:29:03;94178.44;;;11.76;67.57
72409;BME280;60402;48.082;11.628;2023-04-01T11:35:51;94188.91;;;11.85;67.10
72409;BME280;60402;48.082;11.628;2023-04-01T11:38:57;94206.00;;;11.91;67.17
72409;BME280;60402;48.082;11.628;2023-04-01T11:45:07;94194.13;;;11.77;69.88
72409;BME280;60402;48.082;11.628;2023-04-01T12:03:54;94247.31;;;10.74;86.08
72409;BME280;60402;48.082;11.628;2023-04-01T12:06:55;94245.50;;;10.43;88.30
72409;BME280;60402;48.082;11.628;2023-04-01T12:10:02;94230.28;;;10.50;86.68
72409;BME280;60402;48.082;11.628;2023-04-01T12:22:59;94231.91;;;9.87;86.52
72409;BME280;60402;48.082;11.628;2023-04-01T13:00:23;94229.81;;;9.23;90.30
72409;BME280;60402;48.082;11.628;2023-04-01T13:09:35;94239.06;;;9.33;89.46
72409;BME280;60402;48.082;11.628;2023-04-01T13:12:42;94225.91;;;9.39;90.19
72409;BME280;60402;48.082;11.628;2023-04-01T13:15:48;94227.59;;;9.18;90.97
72409;BME280;60402;48.082;11.628;2023-04-01T13:19:04;94209.69;;;9.03;89.93
72409;BME280;60402;48.082;11.628;2023-04-01T13:22:17;94213.94;;;9.07;91.29
72409;BME280;60402;48.082;11.628;2023-04-01T13:25:36;94221.00;;;9.12;91.51
72409;BME280;60402;48.082;11.628;2023-04-01T13:28:50;94218.50;;;9.14;91.14
72409;BME280;60402;48.082;11.628;2023-04-01T13:37:47;94256.16;;;8.98;90.13
72409;BME280;60402;48.082;11.628;2023-04-01T13:40:49;94258.50;;;8.90;90.37
72409;BME280;60402;48.082;11.628;2023-04-01T13:43:43;94249.53;;;8.83;93.45
72409;BME280;60402;48.082;11.628;2023-04-01T13:53:16;94246.00;;;9.01;92.32
72409;BME280;60402;48.082;11.628;2023-04-01T13:56:34;94229.75;;;8.64;93.08
72409;BME280;60402;48.082;11.628;2023-04-01T14:02:41;94243.34;;;8.97;94.68
72409;BME280;60402;48.082;11.628;2023-04-01T14:05:41;94259.03;;;9.07;94.81
72409;BME280;60402;48.082;11.628;2023-04-01T14:11:54;94246.22;;;9.15;92.36
72409;BME280;60402;48.082;11.628;2023-04-01T14:18:02;94256.91;;;9.30;93.50
72409;BME280;60402;48.082;11.628;2023-04-01T14:21:07;94244.47;;;9.09;94.21
72409;BME280;60402;48.082;11.628;2023-04-01T14:33:43;94255.78;;;9.18;95.46
72409;BME280;60402;48.082;11.628;2023-04-01T14:46:28;94257.69;;;9.30;94.67
72409;BME280;60402;48.082;11.628;2023-04-01T14:49:30;94253.81;;;9.46;95.50
72409;BME280;60402;48.082;11.628;2023-04-01T14:52:27;94233.84;;;9.22;97.25
72409;BME280;60402;48.082;11.628;2023-04-01T14:58:45;94259.59;;;9.42;95.90
72409;BME280;60402;48.082;11.628;2023-04-01T15:01:58;94258.66;;;9.45;95.77
72409;BME280;60402;48.082;11.628;2023-04-01T15:04:58;94261.63;;;9.33;96.23
72409;BME280;60402;48.082;11.628;2023-04-01T15:08:00;94250.31;;;9.24;94.85
72409;BME280;60402;48.082;11.628;2023-04-01T15:23:51;94264.41;;;9.24;91.48
72409;BME280;60402;48.082;11.628;2023-04-01T15:32:45;94258.94;;;9.29;91.16
72409;BME280;60402;48.082;11.628;2023-04-01T15:52:01;94261.16;;;9.43;85.57
72409;BME280;60402;48.082;11.628;2023-04-01T15:58:03;94284.69;;;9.59;84.50
72409;BME280;60402;48.082;11.628;2023-04-01T16:10:25;94274.81;;;9.63;82.82
72409;BME280;60402;48.082;11.628;2023-04-01T16:13:24;94263.38;;;9.48;82.29
72409;BME280;60402;48.082;11.628;2023-04-01T16:16:23;94249.25;;;9.39;84.34
72409;BME280;60402;48.082;11.628;2023-04-01T16:22:31;94278.56;;;9.42;81.39
72409;BME280;60402;48.082;11.628;2023-04-01T16:28:42;94289.25;;;9.56;81.87
72409;BME280;60402;48.082;11.628;2023-04-01T16:31:53;94295.50;;;9.51;81.15
72409;BME280;60402;48.082;11.628;2023-04-01T16:34:47;94268.03;;;9.33;82.51
72409;BME280;60402;48.082;11.628;2023-04-01T16:37:48;94274.16;;;9.41;80.60
72409;BME280;60402;48.082;11.628;2023-04-01T16:41:00;94280.09;;;9.34;81.83
72409;BME280;60402;48.082;11.628;2023-04-01T16:43:57;94281.50;;;9.38;81.06
72409;BME280;60402;48.082;11.628;2023-04-01T16:46:58;94259.06;;;9.16;79.68
72409;BME280;60402;48.082;11.628;2023-04-01T16:49:56;94275.84;;;9.29;79.23
72409;BME280;60402;48.082;11.628;2023-04-01T16:58:39;94285.78;;;9.03;78.40
72409;BME280;60402;48.082;11.628;2023-04-01T17:01:30;94298.19;;;9.14;79.03
72409;BME280;60402;48.082;11.628;2023-04-01T17:04:21;94312.16;;;9.18;77.12
72409;BME280;60402;48.082;11.628;2023-04-01T17:16:14;94316.81;;;9.12;77.23
72409;BME280;60402;48.082;11.628;2023-04-01T17:19:22;94323.69;;;9.11;77.03
72409;BME280;60402;48.082;11.628;2023-04-01T17:28:58;94306.00;;;8.79;77.81
72409;BME280;60402;48.082;11.628;2023-04-01T17:32:09;94336.41;;;8.84;78.44
72409;BME280;60402;48.082;11.628;2023-04-01T17:35:17;94325.34;;;8.90;77.63
72409;BME280;60402;48.082;11.628;2023-04-01T17:47:06;94336.41;;;8.84;77.89
72409;BME280;60402;48.082;11.628;2023-04-01T17:50:05;94326.97;;;8.78;78.03
72409;BME280;60402;48.082;11.628;2023-04-01T17:56:02;94334.22;;;8.88;78.36
72409;BME280;60402;48.082;11.628;2023-04-01T17:58:58;94344.53;;;8.82;78.74
72409;BME280;60402;48.082;11.628;2023-04-01T18:26:23;94377.50;;;8.73;83.26
72409;BME280;60402;48.082;11.628;2023-04-01T18:29:32;94382.59;;;8.65;85.20
72409;BME280;60402;48.082;11.628;2023-04-01T18:38:54;94379.56;;;8.37;84.40
72409;BME280;60402;48.082;11.628;2023-04-01T18:42:03;94393.88;;;8.43;85.17
72409;BME280;60402;48.082;11.628;2023-04-01T18:51:22;94408.34;;;8.19;91.55
72409;BME280;60402;48.082;11.628;2023-04-01T18:54:27;94376.72;;;8.15;92.21
72409;BME280;60402;48.082;11.628;2023-04-01T18:57:17;94384.03;;;8.13;91.92
72409;BME280;60402;48.082;11.628;2023-04-01T19:00:26;94398.84;;;8.26;92.77
72409;BME280;60402;48.082;11.628;2023-04-01T19:03:21;94386.41;;;8.14;92.75
72409;BME280;60402;48.082;11.628;2023-04-01T19:12:27;94408.34;;;8.19;93.25
72409;BME280;60402;48.082;11.628;2023-04-01T19:15:24;94387.22;;;8.02;93.23
72409;BME280;60402;48.082;11.628;2023-04-01T19:18:35;94407.09;;;8.20;92.04
72409;BME280;60402;48.082;11.628;2023-04-01T19:21:33;94408.66;;;8.22;92.07
72409;BME280;60402;48.082;11.628;2023-04-01T19:24:38;94407.78;;;8.12;91.82
72409;BME280;60402;48.082;11.628;2023-04-01T19:30:41;94408.56;;;8.12;92.46
72409;BME280;60402;48.082;11.628;2023-04-01T19:36:40;94423.09;;;8.11;91.23
72409;BME280;60402;48.082;11.628;2023-04-01T19:39:48;94428.84;;;8.07;91.00
72409;BME280;60402;48.082;11.628;2023-04-01T19:46:14;94439.00;;;8.05;90.69
72409;BME280;60402;48.082;11.628;2023-04-01T19:49:07;94438.19;;;8.04;91.18
72409;BME280;60402;48.082;11.628;2023-04-01T19:52:14;94419.22;;;7.83;90.89
72409;BME280;60402;48.082;11.628;2023-04-01T19:55:24;94428.53;;;7.92;91.15
72409;BME280;60402;48.082;11.628;2023-04-01T19:59:00;94444.84;;;7.98;91.06
72409;BME280;60402;48.082;11.628;2023-04-01T20:05:36;94433.97;;;7.74;91.94
72409;BME280;60402;48.082;11.628;2023-04-01T20:11:34;94456.00;;;7.88;91.09
72409;BME280;60402;48.082;11.628;2023-04-01T20:15:18;94417.09;;;7.61;89.98
72409;BME280;60402;48.082;11.628;2023-04-01T20:17:43;94440.28;;;7.65;90.95
72409;BME280;60402;48.082;11.628;2023-04-01T20:20:31;94434.31;;;7.51;91.96
72409;BME280;60402;48.082;11.628;2023-04-01T20:26:21;94419.69;;;7.43;91.47
72409;BME280;60402;48.082;11.628;2023-04-01T20:32:31;94458.38;;;7.64;92.05
72409;BME280;60402;48.082;11.628;2023-04-01T20:35:49;94461.88;;;7.56;92.45
72409;BME280;60402;48.082;11.628;2023-04-01T20:54:23;94471.53;;;7.55;92.16
72409;BME280;60402;48.082;11.628;2023-04-01T20:57:18;94442.63;;;7.41;91.77
72409;BME280;60402;48.082;11.628;2023-04-01T21:06:29;94474.34;;;7.55;93.08
72409;BME280;60402;48.082;11.628;2023-04-01T21:12:34;94464.22;;;7.57;91.78
72409;BME280;60402;48.082;11.628;2023-04-01T21:15:43;94471.75;;;7.60;92.33
72409;BME280;60402;48.082;11.628;2023-04-01T21:58:13;94500.34;;;7.59;90.93
72409;BME280;60402;48.082;11.628;2023-04-01T22:05:10;94511.91;;;7.61;91.39
72409;BME280;60402;48.082;11.628;2023-04-01T22:14:47;94520.22;;;7.52;92.75
72409;BME280;60402;48.082;11.628;2023-04-01T22:20:40;94501.75;;;7.38;91.96
72409;BME280;60402;48.082;11.628;2023-04-01T22:26:55;94518.56;;;7.54;92.04
72409;BME280;60402;48.082;11.628;2023-04-01T22:33:05;94523.63;;;7.59;91.16
72409;BME280;60402;48.082;11.628;2023-04-01T22:35:55;94524.72;;;7.62;92.03
72409;BME280;60402;48.082;11.628;2023-04-01T22:51:17;94522.25;;;7.51;90.83
72409;BME280;60402;48.082;11.628;2023-04-01T22:57:42;94530.03;;;7.60;90.60
72409;BME280;60402;48.082;11.628;2023-04-01T23:00:34;94521.25;;;7.45;91.43
72409;BME280;60402;48.082;11.628;2023-04-01T23:06:20;94491.75;;;7.37;90.50
72409;BME280;60402;48.082;11.628;2023-04-01T23:09:15;94522.94;;;7.55;90.83
72409;BME280;60402;48.082;11.628;2023-04-01T23:12:11;94522.25;;;7.51;90.66
72409;BME280;60402;48.082;11.628;2023-04-01T23:15:00;94512.69;;;7.49;90.29
72409;BME280;60402;48.082;11.628;2023-04-01T23:17:52;94520.34;;;7.48;90.67
72409;BME280;60402;48.082;11.628;2023-04-01T23:21:03;94544.53;;;7.58;90.96
72409;BME280;60402;48.082;11.628;2023-04-01T23:27:01;94551.13;;;7.52;91.60
72409;BME280;60402;48.082;11.628;2023-04-01T23:29:51;94524.03;;;7.45;90.78
72409;BME280;60402;48.082;11.628;2023-04-01T23:32:37;94544.28;;;7.40;91.94
72409;BME280;60402;48.082;11.628;2023-04-01T23:35:23;94550.72;;;7.53;91.48
72409;BME280;60402;48.082;11.628;2023-04-01T23:38:09;94541.66;;;7.33;92.02
72409;BME280;60402;48.082;11.628;2023-04-01T23:40:55;94532.13;;;7.43;90.97
72409;BME280;60402;48.082;11.628;2023-04-01T23:43:42;94539.22;;;7.35;91.11
72409;BME280;60402;48.082;11.628;2023-04-01T23:46:30;94566.06;;;7.36;91.81
72409;BME280;60402;48.082;11.628;2023-04-01T23:49:22;94567.44;;;7.57;91.37
72409;BME280;60402;48.082;11.628;2023-04-01T23:52:46;94554.84;;;7.36;91.49
72409;BME280;60402;48.082;11.628;2023-04-01T23:55:33;94561.13;;;7.40;92.22
